Time;durP1;ratioP1;P1;durP2;ratioP2;P2;SDS_P1;SDS_P2;PMS_P1;PMS_P2;Temp;Humidity;BMP_temperature;BMP_pressure;BME280_temperature;BME280_humidity;BME280_pressure;Samples;Min_cycle;Max_cycle;Signal;HPM_P1;HPM_P2
2022/12/30 00:01:29;;;;;;;119.05;64.15;;;;;;;;;;5050181;28;20051;-77
2022/12/30 00:03:55;;;;;;;112.50;59.97;;;;;;;;;;5044780;28;20427;-76
2022/12/30 00:06:22;;;;;;;111.18;57.53;;;;;;;;;;5025498;28;20156;-76
2022/12/30 00:08:53;;;;;;;106.72;56.20;;;;;;;;;;5025075;28;20021;-76
2022/12/30 00:11:23;;;;;;;112.63;60.95;;;;;;;;;;5026055;28;20037;-75
2022/12/30 00:33:06;;;;;;;129.30;69.38;;;;;;;;;;5027956;28;20040;-76
2022/12/30 00:34:06;;;;;;;132.00;65.82;;;;;;;;;;5031349;28;20486;-75
2022/12/30 00:36:32;;;;;;;128.15;65.43;;;;;;;;;;5031099;28;20747;-76
2022/12/30 00:38:59;;;;;;;122.07;60.25;;;;;;;;;;5031336;28;20025;-75
2022/12/30 00:44:09;;;;;;;115.65;58.70;;;;;;;;;;5024120;28;20037;-76
2022/12/30 00:46:37;;;;;;;110.75;57.90;;;;;;;;;;5011493;28;20022;-76
2022/12/30 00:57:16;;;;;;;68.85;37.20;;;;;;;;;;5015195;28;20046;-76
2022/12/30 00:59:42;;;;;;;77.50;39.28;;;;;;;;;;5013940;28;20037;-76
2022/12/30 01:02:08;;;;;;;80.65;40.67;;;;;;;;;;5027034;28;20103;-76
2022/12/30 01:04:33;;;;;;;75.20;42.35;;;;;;;;;;5033456;28;20029;-76
2022/12/30 01:06:59;;;;;;;72.13;38.35;;;;;;;;;;5034463;28;20034;-76
2022/12/30 01:09:25;;;;;;;63.63;37.38;;;;;;;;;;5016346;28;20033;-75
2022/12/30 01:12:23;;;;;;;61.30;35.88;;;;;;;;;;5034669;28;20510;-76
2022/12/30 01:14:48;;;;;;;93.88;48.47;;;;;;;;;;5030914;28;20074;-76
2022/12/30 01:17:18;;;;;;;80.90;42.28;;;;;;;;;;5034518;28;20038;-76
2022/12/30 01:19:44;;;;;;;78.28;41.63;;;;;;;;;;5022571;28;20030;-76
2022/12/30 01:22:10;;;;;;;88.43;44.70;;;;;;;;;;5014469;28;20032;-75
2022/12/30 01:24:37;;;;;;;73.90;39.72;;;;;;;;;;5027071;28;20034;-75
2022/12/30 01:27:04;;;;;;;73.70;38.80;;;;;;;;;;5033842;28;20040;-75
2022/12/30 01:29:39;;;;;;;72.82;38.25;;;;;;;;;;5033640;28;20061;-76
2022/12/30 01:32:10;;;;;;;67.80;38.55;;;;;;;;;;5032913;28;20034;-76
2022/12/30 01:34:36;;;;;;;62.72;35.95;;;;;;;;;;5032223;28;20040;-75
2022/12/30 01:37:03;;;;;;;60.28;34.20;;;;;;;;;;5032951;28;20487;-75
2022/12/30 01:39:29;;;;;;;66.20;36.38;;;;;;;;;;5033914;28;20041;-75
2022/12/30 01:41:55;;;;;;;63.08;36.00;;;;;;;;;;5033090;28;20025;-75
2022/12/30 01:44:48;;;;;;;70.47;35.70;;;;;;;;;;5032656;28;20043;-76
2022/12/30 01:47:34;;;;;;;59.13;34.10;;;;;;;;;;5033824;28;20040;-76
2022/12/30 01:50:09;;;;;;;58.78;32.85;;;;;;;;;;5033432;28;20045;-76
2022/12/30 01:52:42;;;;;;;58.58;31.75;;;;;;;;;;5033561;28;20033;-76
2022/12/30 01:55:14;;;;;;;53.10;30.42;;;;;;;;;;5034888;28;20034;-75
2022/12/30 01:57:44;;;;;;;56.15;28.98;;;;;;;;;;5035692;28;20064;-75
2022/12/30 02:00:10;;;;;;;52.42;31.17;;;;;;;;;;5039021;28;20033;-75
2022/12/30 02:02:40;;;;;;;53.65;29.52;;;;;;;;;;5035997;28;20503;-76
2022/12/30 02:05:07;;;;;;;53.17;30.23;;;;;;;;;;5032545;28;20551;-75
2022/12/30 02:07:43;;;;;;;49.35;28.63;;;;;;;;;;5033968;28;20464;-75
2022/12/30 02:10:09;;;;;;;47.38;28.20;;;;;;;;;;5029445;28;20041;-75
2022/12/30 02:12:35;;;;;;;45.53;26.38;;;;;;;;;;5014265;28;20092;-75
2022/12/30 02:15:03;;;;;;;45.78;26.42;;;;;;;;;;5014128;28;20032;-75
2022/12/30 02:17:38;;;;;;;40.63;23.23;;;;;;;;;;5013865;28;20101;-74
2022/12/30 02:20:23;;;;;;;40.75;24.60;;;;;;;;;;5013442;28;20044;-76
2022/12/30 02:23:11;;;;;;;42.25;23.80;;;;;;;;;;5013490;28;20037;-77
2022/12/30 02:25:51;;;;;;;41.90;24.48;;;;;;;;;;5023237;28;20045;-76
2022/12/30 02:28:38;;;;;;;45.33;24.15;;;;;;;;;;5027933;28;20049;-76
2022/12/30 02:31:25;;;;;;;42.17;25.05;;;;;;;;;;5030081;28;20119;-75
2022/12/30 02:34:17;;;;;;;43.22;24.08;;;;;;;;;;5032808;28;20033;-75
2022/12/30 02:36:46;;;;;;;38.88;23.10;;;;;;;;;;5032785;28;20067;-76
2022/12/30 02:39:44;;;;;;;44.03;24.70;;;;;;;;;;5032322;28;20075;-76
2022/12/30 02:45:41;;;;;;;38.90;23.67;;;;;;;;;;5032010;28;20045;-75
2022/12/30 02:48:14;;;;;;;43.60;23.92;;;;;;;;;;5003518;28;20042;-75
2022/12/30 02:53:30;;;;;;;39.38;23.80;;;;;;;;;;5032983;28;20480;-74
2022/12/30 02:55:56;;;;;;;39.28;24.17;;;;;;;;;;5031069;28;20519;-75
2022/12/30 02:58:25;;;;;;;50.22;25.25;;;;;;;;;;5031737;28;20033;-75
2022/12/30 03:04:21;;;;;;;45.90;26.27;;;;;;;;;;5031615;28;20029;-76
2022/12/30 03:06:56;;;;;;;47.03;27.63;;;;;;;;;;5030563;28;20459;-77
2022/12/30 03:09:23;;;;;;;50.00;28.90;;;;;;;;;;5032443;28;20534;-76
2022/12/30 03:12:05;;;;;;;50.80;27.90;;;;;;;;;;5032239;28;20171;-75
2022/12/30 03:14:37;;;;;;;50.03;29.67;;;;;;;;;;5035065;28;20048;-75
2022/12/30 03:17:09;;;;;;;52.20;29.33;;;;;;;;;;5039789;28;20503;-75
2022/12/30 03:19:39;;;;;;;44.72;26.77;;;;;;;;;;5042042;28;20286;-75
2022/12/30 03:27:02;;;;;;;63.42;34.00;;;;;;;;;;5052282;28;20171;-75
2022/12/30 03:27:40;;;;;;;45.97;27.40;;;;;;;;;;5063172;28;20533;-76
2022/12/30 03:30:06;;;;;;;48.17;26.80;;;;;;;;;;5051444;28;20056;-76
2022/12/30 03:32:32;;;;;;;49.30;25.33;;;;;;;;;;5051645;28;20047;-75
2022/12/30 03:34:58;;;;;;;51.72;26.85;;;;;;;;;;5038267;28;20136;-76
2022/12/30 03:37:34;;;;;;;60.72;27.60;;;;;;;;;;5032008;28;20430;-76
2022/12/30 03:40:08;;;;;;;58.50;28.83;;;;;;;;;;5032260;28;20033;-75
2022/12/30 03:42:34;;;;;;;53.17;28.55;;;;;;;;;;5045145;28;20029;-74
2022/12/30 03:45:00;;;;;;;56.03;29.85;;;;;;;;;;5057043;28;20025;-76
2022/12/30 03:47:26;;;;;;;52.42;30.83;;;;;;;;;;5031476;28;20026;-76
2022/12/30 03:49:52;;;;;;;55.72;29.33;;;;;;;;;;5035572;28;20467;-75
2022/12/30 03:52:20;;;;;;;45.97;26.88;;;;;;;;;;5014478;28;20033;-75
2022/12/30 03:54:47;;;;;;;47.50;27.60;;;;;;;;;;5042605;28;20017;-76
2022/12/30 03:57:13;;;;;;;46.95;28.55;;;;;;;;;;5031782;28;20100;-75
2022/12/30 03:59:41;;;;;;;49.47;28.95;;;;;;;;;;5030976;28;20021;-76
2022/12/30 04:02:07;;;;;;;47.97;28.13;;;;;;;;;;5030200;28;20041;-75
2022/12/30 04:04:33;;;;;;;49.78;28.65;;;;;;;;;;5039004;28;20069;-75
2022/12/30 04:06:59;;;;;;;59.10;34.10;;;;;;;;;;5051085;28;20036;-76
2022/12/30 04:09:25;;;;;;;62.42;32.78;;;;;;;;;;5047473;28;20528;-76
2022/12/30 04:11:51;;;;;;;53.00;31.13;;;;;;;;;;5031759;28;20030;-76
2022/12/30 04:14:16;;;;;;;64.22;33.13;;;;;;;;;;5029912;28;20052;-75
2022/12/30 04:16:42;;;;;;;53.25;30.55;;;;;;;;;;5044306;28;20044;-77
2022/12/30 04:19:08;;;;;;;56.75;30.55;;;;;;;;;;5050859;28;20116;-75
2022/12/30 04:21:34;;;;;;;66.38;33.15;;;;;;;;;;5049473;28;20098;-76
2022/12/30 04:24:00;;;;;;;51.83;28.55;;;;;;;;;;5050969;28;20478;-76
2022/12/30 04:26:26;;;;;;;46.33;27.00;;;;;;;;;;5030050;28;20073;-76
2022/12/30 04:28:51;;;;;;;46.90;27.33;;;;;;;;;;5030983;28;20049;-76
2022/12/30 04:31:17;;;;;;;46.25;27.08;;;;;;;;;;5035372;28;20040;-76
2022/12/30 04:33:43;;;;;;;44.40;27.50;;;;;;;;;;5035013;28;20128;-76
2022/12/30 04:36:09;;;;;;;40.65;25.13;;;;;;;;;;5054967;28;20041;-76
2022/12/30 04:38:35;;;;;;;37.88;23.50;;;;;;;;;;5053668;28;20386;-76
2022/12/30 04:41:00;;;;;;;40.88;24.45;;;;;;;;;;5048472;28;20517;-75
2022/12/30 04:43:26;;;;;;;44.35;23.55;;;;;;;;;;5054991;28;20021;-75
2022/12/30 04:45:52;;;;;;;39.22;22.50;;;;;;;;;;5054493;28;20031;-76
2022/12/30 04:48:18;;;;;;;35.72;21.55;;;;;;;;;;5052697;28;20016;-76
2022/12/30 04:50:45;;;;;;;42.10;22.98;;;;;;;;;;5055511;28;20032;-76
2022/12/30 04:53:11;;;;;;;36.28;20.08;;;;;;;;;;5037837;28;20021;-76
2022/12/30 04:55:38;;;;;;;34.28;21.73;;;;;;;;;;5055660;28;20045;-75
2022/12/30 04:58:04;;;;;;;38.22;22.63;;;;;;;;;;5055656;28;20021;-77
2022/12/30 05:00:31;;;;;;;39.28;22.45;;;;;;;;;;5055437;28;20112;-75
2022/12/30 05:02:57;;;;;;;44.00;22.70;;;;;;;;;;5052612;28;20024;-76
2022/12/30 05:05:23;;;;;;;44.33;23.73;;;;;;;;;;5053650;28;20095;-76
2022/12/30 05:07:49;;;;;;;42.15;23.67;;;;;;;;;;5054998;28;20382;-76
2022/12/30 05:10:15;;;;;;;46.72;24.85;;;;;;;;;;5054795;28;20128;-76
2022/12/30 05:12:41;;;;;;;43.80;24.83;;;;;;;;;;5054512;28;20103;-77
2022/12/30 05:15:07;;;;;;;51.33;27.27;;;;;;;;;;5046949;28;20594;-76
2022/12/30 05:17:33;;;;;;;42.95;23.70;;;;;;;;;;5049202;28;20029;-76
2022/12/30 05:20:01;;;;;;;45.78;24.27;;;;;;;;;;5034769;28;20036;-76
2022/12/30 05:22:26;;;;;;;44.55;24.80;;;;;;;;;;5035041;28;20036;-76
2022/12/30 05:27:37;;;;;;;45.58;27.33;;;;;;;;;;5034951;28;20040;-76
2022/12/30 05:30:03;;;;;;;49.65;26.58;;;;;;;;;;5035026;28;20511;-75
2022/12/30 05:32:28;;;;;;;55.13;25.08;;;;;;;;;;5033850;28;20041;-76
2022/12/30 05:34:54;;;;;;;52.05;25.55;;;;;;;;;;5034881;28;20018;-76
2022/12/30 05:37:20;;;;;;;57.97;24.88;;;;;;;;;;5034906;28;20041;-76
2022/12/30 05:39:46;;;;;;;45.42;26.88;;;;;;;;;;5034795;28;20084;-75
2022/12/30 05:42:12;;;;;;;57.08;29.98;;;;;;;;;;5049831;28;20499;-77
2022/12/30 05:44:37;;;;;;;50.95;29.33;;;;;;;;;;5034384;28;20029;-77
2022/12/30 05:47:03;;;;;;;46.92;27.10;;;;;;;;;;5034210;28;20033;-76
2022/12/30 05:49:29;;;;;;;59.13;28.80;;;;;;;;;;5034862;28;20029;-77
2022/12/30 05:51:55;;;;;;;49.28;29.15;;;;;;;;;;5034807;28;20068;-77
2022/12/30 05:54:21;;;;;;;50.75;28.20;;;;;;;;;;5034343;28;20053;-76
2022/12/30 05:56:47;;;;;;;50.97;29.30;;;;;;;;;;5051177;28;20049;-76
2022/12/30 05:59:13;;;;;;;46.33;27.00;;;;;;;;;;5051444;28;20567;-77
2022/12/30 06:01:39;;;;;;;50.20;28.48;;;;;;;;;;5052609;28;20098;-77
2022/12/30 06:04:05;;;;;;;61.15;26.02;;;;;;;;;;5053784;28;20051;-75
2022/12/30 06:06:31;;;;;;;39.97;23.25;;;;;;;;;;5053435;28;20474;-76
2022/12/30 06:08:57;;;;;;;39.33;23.80;;;;;;;;;;5053844;28;20113;-76
2022/12/30 06:11:23;;;;;;;55.95;24.75;;;;;;;;;;5053300;28;20052;-76
2022/12/30 06:13:48;;;;;;;47.33;24.77;;;;;;;;;;5050289;28;20021;-76
2022/12/30 06:16:14;;;;;;;42.33;21.95;;;;;;;;;;5053149;28;20078;-76
2022/12/30 06:18:40;;;;;;;44.70;23.33;;;;;;;;;;5052833;28;20029;-76
2022/12/30 06:21:06;;;;;;;36.33;21.17;;;;;;;;;;5052336;28;20052;-76
2022/12/30 06:23:32;;;;;;;35.13;21.00;;;;;;;;;;5052497;28;20124;-76
2022/12/30 06:26:00;;;;;;;35.28;21.52;;;;;;;;;;5051355;28;20112;-76
2022/12/30 06:28:29;;;;;;;43.72;22.58;;;;;;;;;;5049615;28;20036;-74
2022/12/30 06:30:56;;;;;;;44.90;22.92;;;;;;;;;;5052786;28;20032;-74
2022/12/30 06:33:23;;;;;;;49.95;22.65;;;;;;;;;;5053246;28;20039;-75
2022/12/30 06:35:49;;;;;;;42.47;22.00;;;;;;;;;;5052467;28;20025;-74
2022/12/30 06:38:15;;;;;;;35.72;21.80;;;;;;;;;;5050663;28;20017;-76
2022/12/30 06:40:41;;;;;;;42.38;24.80;;;;;;;;;;5050237;28;20035;-74
2022/12/30 06:43:07;;;;;;;39.30;21.50;;;;;;;;;;5044934;28;20029;-77
2022/12/30 06:45:34;;;;;;;35.05;22.35;;;;;;;;;;5050431;28;20513;-75
2022/12/30 06:47:59;;;;;;;35.55;23.00;;;;;;;;;;5052215;28;20505;-76
2022/12/30 06:50:25;;;;;;;38.05;23.15;;;;;;;;;;5051537;28;20036;-77
2022/12/30 06:52:51;;;;;;;37.88;22.27;;;;;;;;;;5052161;28;20021;-77
2022/12/30 06:55:17;;;;;;;47.58;26.15;;;;;;;;;;5053505;28;20033;-78
2022/12/30 06:57:43;;;;;;;44.25;24.70;;;;;;;;;;5045765;28;20121;-78
2022/12/30 07:00:10;;;;;;;50.00;25.65;;;;;;;;;;5046590;28;20025;-78
2022/12/30 07:02:36;;;;;;;51.85;25.90;;;;;;;;;;5052175;28;20040;-75
2022/12/30 07:05:02;;;;;;;57.72;27.70;;;;;;;;;;5049583;28;20135;-77
2022/12/30 07:07:28;;;;;;;62.78;26.55;;;;;;;;;;5045182;28;20025;-77
2022/12/30 07:09:54;;;;;;;42.13;25.20;;;;;;;;;;5046190;28;20403;-77
2022/12/30 07:12:20;;;;;;;46.72;25.67;;;;;;;;;;5033687;28;20495;-77
2022/12/30 07:14:45;;;;;;;49.08;26.45;;;;;;;;;;5052332;28;20074;-77
2022/12/30 07:17:11;;;;;;;45.95;24.13;;;;;;;;;;5041214;28;20025;-75
2022/12/30 07:19:37;;;;;;;44.40;24.48;;;;;;;;;;5050292;28;20537;-75
2022/12/30 07:22:03;;;;;;;44.30;23.45;;;;;;;;;;5066370;28;20099;-76
2022/12/30 07:24:29;;;;;;;44.40;25.00;;;;;;;;;;5050032;28;20055;-74
2022/12/30 07:26:54;;;;;;;50.53;25.83;;;;;;;;;;5050152;28;20043;-75
2022/12/30 07:29:20;;;;;;;40.95;24.95;;;;;;;;;;5050061;28;20049;-75
2022/12/30 07:31:47;;;;;;;44.35;29.15;;;;;;;;;;5048147;28;20169;-77
2022/12/30 07:34:13;;;;;;;50.17;28.05;;;;;;;;;;5046421;28;20037;-74
2022/12/30 07:36:39;;;;;;;47.05;26.60;;;;;;;;;;5047755;28;20028;-72
2022/12/30 07:39:06;;;;;;;46.92;28.42;;;;;;;;;;5050899;28;20044;-74
2022/12/30 07:41:33;;;;;;;47.53;28.10;;;;;;;;;;5049420;28;20132;-73
2022/12/30 07:44:03;;;;;;;52.15;30.33;;;;;;;;;;5049449;28;20033;-74
2022/12/30 07:46:29;;;;;;;61.33;29.70;;;;;;;;;;5051294;28;20478;-76
2022/12/30 07:48:55;;;;;;;45.55;27.08;;;;;;;;;;5051109;28;20385;-74
2022/12/30 07:51:21;;;;;;;49.08;28.23;;;;;;;;;;5049872;28;20663;-73
2022/12/30 07:53:46;;;;;;;61.85;27.45;;;;;;;;;;5051321;28;20028;-74
2022/12/30 07:56:14;;;;;;;47.05;28.13;;;;;;;;;;5047480;28;20116;-74
2022/12/30 07:58:40;;;;;;;46.13;27.23;;;;;;;;;;5048947;28;20036;-78
2022/12/30 08:01:10;;;;;;;48.35;27.35;;;;;;;;;;5048484;28;20616;-76
2022/12/30 08:03:37;;;;;;;45.28;26.50;;;;;;;;;;5048658;28;20021;-76
2022/12/30 08:06:07;;;;;;;49.55;28.15;;;;;;;;;;5040041;28;20037;-76
2022/12/30 08:08:34;;;;;;;44.50;26.50;;;;;;;;;;5041252;28;20037;-75
2022/12/30 08:11:01;;;;;;;53.75;30.90;;;;;;;;;;5045745;28;20044;-75
2022/12/30 08:13:29;;;;;;;46.92;29.60;;;;;;;;;;5044389;28;20026;-76
2022/12/30 08:15:55;;;;;;;47.80;29.65;;;;;;;;;;5040622;28;20064;-74
2022/12/30 08:18:21;;;;;;;51.05;30.08;;;;;;;;;;5038655;28;20503;-73
2022/12/30 08:20:46;;;;;;;53.60;30.88;;;;;;;;;;5045258;28;20021;-73
2022/12/30 08:23:12;;;;;;;49.20;29.58;;;;;;;;;;5039332;28;20029;-73
2022/12/30 08:25:38;;;;;;;47.80;29.10;;;;;;;;;;5044842;28;20064;-74
2022/12/30 08:28:05;;;;;;;51.47;32.53;;;;;;;;;;5043369;28;20041;-76
2022/12/30 08:30:32;;;;;;;55.55;31.63;;;;;;;;;;5038418;28;20049;-77
2022/12/30 08:32:57;;;;;;;54.60;30.70;;;;;;;;;;5043638;28;20067;-74
2022/12/30 08:35:23;;;;;;;53.85;32.72;;;;;;;;;;5040100;28;20455;-74
2022/12/30 08:37:49;;;;;;;50.60;34.58;;;;;;;;;;5046388;28;20115;-76
2022/12/30 08:40:15;;;;;;;58.92;36.85;;;;;;;;;;5044763;28;20104;-74
2022/12/30 08:42:41;;;;;;;65.13;36.55;;;;;;;;;;5046633;28;20116;-75
2022/12/30 08:45:08;;;;;;;63.15;35.28;;;;;;;;;;5044664;28;20445;-74
2022/12/30 08:47:34;;;;;;;55.83;35.72;;;;;;;;;;5047167;28;20036;-76
2022/12/30 08:50:01;;;;;;;60.33;36.35;;;;;;;;;;5047159;28;20036;-76
2022/12/30 08:52:27;;;;;;;56.17;35.45;;;;;;;;;;5059614;28;20287;-74
2022/12/30 08:54:53;;;;;;;57.70;33.10;;;;;;;;;;5045394;28;20025;-74
2022/12/30 08:57:19;;;;;;;65.43;37.53;;;;;;;;;;5045313;28;20033;-72
2022/12/30 08:59:45;;;;;;;65.72;37.13;;;;;;;;;;5041665;28;20035;-73
2022/12/30 09:02:13;;;;;;;70.72;39.05;;;;;;;;;;5040055;28;20073;-73
2022/12/30 09:04:38;;;;;;;57.67;34.13;;;;;;;;;;5042705;28;20434;-72
2022/12/30 09:07:06;;;;;;;60.25;36.20;;;;;;;;;;5045092;28;20039;-72
2022/12/30 09:09:31;;;;;;;58.35;36.20;;;;;;;;;;5049072;28;20025;-73
2022/12/30 09:11:57;;;;;;;59.38;35.53;;;;;;;;;;5044424;28;20039;-74
2022/12/30 09:14:24;;;;;;;61.58;35.33;;;;;;;;;;5046979;28;20025;-73
2022/12/30 09:16:49;;;;;;;70.10;37.72;;;;;;;;;;5043417;28;20028;-72
2022/12/30 09:19:16;;;;;;;59.17;36.33;;;;;;;;;;5041133;28;20076;-72
2022/12/30 09:21:42;;;;;;;58.15;32.47;;;;;;;;;;5051395;28;20048;-72
2022/12/30 09:24:09;;;;;;;65.53;37.83;;;;;;;;;;5041054;28;20033;-72
2022/12/30 09:26:35;;;;;;;63.10;35.97;;;;;;;;;;5044744;28;20398;-73
2022/12/30 09:29:01;;;;;;;57.08;33.78;;;;;;;;;;5047722;28;20132;-74
2022/12/30 09:31:28;;;;;;;57.40;33.47;;;;;;;;;;5049572;28;20084;-73
2022/12/30 09:33:54;;;;;;;54.10;32.03;;;;;;;;;;5041836;28;20076;-73
2022/12/30 09:36:20;;;;;;;61.05;33.80;;;;;;;;;;5044267;28;20041;-74
2022/12/30 09:38:46;;;;;;;60.17;32.42;;;;;;;;;;5050228;28;20021;-78
2022/12/30 09:44:21;;;;;;;47.50;28.77;;;;;;;;;;5048163;28;20036;-77
2022/12/30 09:47:02;;;;;;;49.95;29.98;;;;;;;;;;5044346;28;20037;-74
2022/12/30 09:49:37;;;;;;;53.28;29.95;;;;;;;;;;5049227;28;20401;-76
2022/12/30 09:52:20;;;;;;;49.92;29.13;;;;;;;;;;5047844;28;20562;-76
2022/12/30 09:54:53;;;;;;;46.72;30.20;;;;;;;;;;5041928;28;20044;-77
2022/12/30 09:57:33;;;;;;;46.85;28.55;;;;;;;;;;5043115;28;20061;-75
2022/12/30 10:00:20;;;;;;;47.10;29.23;;;;;;;;;;5045727;28;20490;-77
2022/12/30 10:02:54;;;;;;;45.75;27.95;;;;;;;;;;5041273;28;20052;-75
2022/12/30 10:05:40;;;;;;;39.38;24.63;;;;;;;;;;5043419;28;20041;-76
2022/12/30 10:08:15;;;;;;;38.92;24.17;;;;;;;;;;5044368;28;20033;-75
2022/12/30 10:10:46;;;;;;;41.42;23.35;;;;;;;;;;5045496;28;20056;-76
2022/12/30 10:13:27;;;;;;;37.25;21.98;;;;;;;;;;5047524;28;20525;-77
2022/12/30 10:16:31;;;;;;;34.90;22.40;;;;;;;;;;5044634;28;20491;-78
2022/12/30 10:19:11;;;;;;;35.47;22.27;;;;;;;;;;5034429;28;20515;-77
2022/12/30 10:21:40;;;;;;;33.67;21.02;;;;;;;;;;5043105;28;20095;-74
2022/12/30 10:24:21;;;;;;;34.20;21.45;;;;;;;;;;5041680;28;20032;-76
2022/12/30 10:26:49;;;;;;;34.38;21.65;;;;;;;;;;5041704;28;20049;-76
2022/12/30 10:29:33;;;;;;;34.42;22.73;;;;;;;;;;5052163;28;20491;-77
2022/12/30 10:32:26;;;;;;;34.42;21.92;;;;;;;;;;5048759;28;20033;-76
2022/12/30 10:35:01;;;;;;;40.13;24.45;;;;;;;;;;5046414;28;20049;-78
2022/12/30 10:37:33;;;;;;;38.50;22.85;;;;;;;;;;5045569;28;20102;-75
2022/12/30 10:40:06;;;;;;;39.00;24.65;;;;;;;;;;5041665;28;20167;-76
2022/12/30 10:42:56;;;;;;;40.45;23.88;;;;;;;;;;5046260;28;20083;-76
2022/12/30 10:45:32;;;;;;;39.15;23.67;;;;;;;;;;5046714;28;20048;-76
2022/12/30 10:48:21;;;;;;;35.00;24.25;;;;;;;;;;5048904;28;20025;-74
2022/12/30 10:50:48;;;;;;;48.15;24.90;;;;;;;;;;5048145;28;20544;-76
2022/12/30 10:53:19;;;;;;;34.60;23.35;;;;;;;;;;5040819;28;20025;-77
2022/12/30 10:55:51;;;;;;;38.78;22.70;;;;;;;;;;5044048;28;20040;-78
2022/12/30 10:58:30;;;;;;;35.85;23.60;;;;;;;;;;5047156;28;20135;-77
2022/12/30 11:00:59;;;;;;;34.55;22.48;;;;;;;;;;5059793;28;20033;-78
2022/12/30 11:03:30;;;;;;;39.70;24.95;;;;;;;;;;5042497;28;20017;-78
2022/12/30 11:06:13;;;;;;;40.20;24.27;;;;;;;;;;5046655;28;20025;-79
2022/12/30 11:08:39;;;;;;;41.85;23.58;;;;;;;;;;5061513;28;20479;-78
2022/12/30 11:11:07;;;;;;;37.28;23.90;;;;;;;;;;5044538;28;20017;-76
2022/12/30 11:16:28;;;;;;;35.60;21.23;;;;;;;;;;5040958;28;20029;-76
2022/12/30 11:18:58;;;;;;;36.67;22.48;;;;;;;;;;5043315;28;20185;-78
2022/12/30 11:21:31;;;;;;;37.72;22.65;;;;;;;;;;5043440;28;20051;-75
2022/12/30 11:24:00;;;;;;;33.67;20.60;;;;;;;;;;5043351;28;20044;-78
2022/12/30 11:26:28;;;;;;;41.78;23.35;;;;;;;;;;5047132;28;20112;-77
2022/12/30 11:29:08;;;;;;;35.95;21.70;;;;;;;;;;5047989;28;20449;-78
2022/12/30 11:31:41;;;;;;;33.45;22.42;;;;;;;;;;5049910;28;20029;-75
2022/12/30 11:34:20;;;;;;;32.40;21.10;;;;;;;;;;5046747;28;20574;-75
2022/12/30 11:36:46;;;;;;;37.33;20.95;;;;;;;;;;5051794;28;20142;-75
2022/12/30 11:39:15;;;;;;;33.08;20.05;;;;;;;;;;5050302;28;20116;-76
2022/12/30 11:41:56;;;;;;;33.10;19.63;;;;;;;;;;5051185;28;20035;-75
2022/12/30 11:44:32;;;;;;;34.05;20.80;;;;;;;;;;5048538;28;20017;-77
2022/12/30 11:47:11;;;;;;;37.45;21.92;;;;;;;;;;5051251;28;20383;-75
2022/12/30 11:49:45;;;;;;;41.40;22.23;;;;;;;;;;5050855;28;20499;-75
2022/12/30 11:52:24;;;;;;;32.83;20.38;;;;;;;;;;5048537;28;20033;-75
2022/12/30 11:55:18;;;;;;;33.08;20.45;;;;;;;;;;5050520;28;20033;-77
2022/12/30 11:57:47;;;;;;;35.40;20.42;;;;;;;;;;5051393;28;20045;-76
2022/12/30 12:00:13;;;;;;;33.05;19.77;;;;;;;;;;5056471;28;20025;-77
2022/12/30 12:02:44;;;;;;;33.97;19.98;;;;;;;;;;5050860;28;20025;-76
2022/12/30 12:05:22;;;;;;;37.22;21.52;;;;;;;;;;5056761;28;20032;-77
2022/12/30 12:07:50;;;;;;;37.28;21.75;;;;;;;;;;5046487;28;20033;-76
2022/12/30 12:10:23;;;;;;;32.05;20.05;;;;;;;;;;5051580;28;20032;-78
2022/12/30 12:13:14;;;;;;;32.42;20.45;;;;;;;;;;5049513;28;20021;-76
2022/12/30 12:15:47;;;;;;;32.60;20.30;;;;;;;;;;5039401;28;20045;-77
2022/12/30 12:18:33;;;;;;;39.17;20.43;;;;;;;;;;5051186;28;20041;-76
2022/12/30 12:21:20;;;;;;;51.38;28.52;;;;;;;;;;5049341;28;20033;-76
2022/12/30 12:23:58;;;;;;;38.13;22.67;;;;;;;;;;5066848;28;20413;-76
2022/12/30 12:26:31;;;;;;;35.63;21.50;;;;;;;;;;5049029;28;20024;-77
2022/12/30 12:28:59;;;;;;;36.38;20.85;;;;;;;;;;5051637;28;20052;-75
2022/12/30 12:31:53;;;;;;;34.53;21.25;;;;;;;;;;5043394;28;20038;-73
2022/12/30 12:34:18;;;;;;;;;;;;;;;;;;5032167;28;20045;-73
2022/12/30 12:37:02;;;;;;;35.58;21.45;;;;;;;;;;5033881;28;19923;-71
2022/12/30 12:39:34;;;;;;;34.10;20.15;;;;;;;;;;5049989;28;20029;-75
2022/12/30 12:42:07;;;;;;;38.97;22.55;;;;;;;;;;5048900;28;20051;-76
2022/12/30 12:45:10;;;;;;;35.65;21.23;;;;;;;;;;5049011;28;20032;-75
2022/12/30 12:47:51;;;;;;;36.58;21.50;;;;;;;;;;5048736;28;20380;-75
2022/12/30 12:50:30;;;;;;;39.30;22.08;;;;;;;;;;5052192;28;20123;-77
2022/12/30 12:53:20;;;;;;;38.03;22.08;;;;;;;;;;5051933;28;20029;-77
2022/12/30 12:56:13;;;;;;;31.70;20.77;;;;;;;;;;5053166;28;20032;-74
2022/12/30 12:58:54;;;;;;;36.72;22.15;;;;;;;;;;5055062;28;20052;-75
2022/12/30 13:01:23;;;;;;;40.33;22.30;;;;;;;;;;5054534;28;20033;-76
2022/12/30 13:04:21;;;;;;;39.97;22.17;;;;;;;;;;5055143;28;20025;-75
2022/12/30 13:07:12;;;;;;;38.50;23.20;;;;;;;;;;5047865;28;20036;-76
2022/12/30 13:09:41;;;;;;;41.13;23.40;;;;;;;;;;5036146;28;20037;-76
2022/12/30 13:12:17;;;;;;;40.97;24.27;;;;;;;;;;5053099;28;20121;-76
2022/12/30 13:14:59;;;;;;;40.45;24.88;;;;;;;;;;5067100;28;20052;-76
2022/12/30 13:17:39;;;;;;;37.67;22.27;;;;;;;;;;5052658;28;20165;-77
2022/12/30 13:20:13;;;;;;;43.47;23.13;;;;;;;;;;5048327;28;20674;-77
2022/12/30 13:22:39;;;;;;;42.15;24.40;;;;;;;;;;5031630;28;20120;-75
2022/12/30 13:25:19;;;;;;;46.63;27.65;;;;;;;;;;5032829;28;20025;-76
2022/12/30 13:27:48;;;;;;;45.83;27.60;;;;;;;;;;5033672;28;20041;-75
2022/12/30 13:30:17;;;;;;;38.60;24.20;;;;;;;;;;5035317;28;20057;-75
2022/12/30 13:33:05;;;;;;;36.38;22.90;;;;;;;;;;5034967;28;20056;-75
2022/12/30 13:35:39;;;;;;;38.78;23.45;;;;;;;;;;5047958;28;20033;-76
2022/12/30 13:38:23;;;;;;;38.60;24.10;;;;;;;;;;5054176;28;20036;-75
2022/12/30 13:41:04;;;;;;;39.00;24.42;;;;;;;;;;5054623;28;20033;-75
2022/12/30 13:43:42;;;;;;;44.25;25.85;;;;;;;;;;5053492;28;20056;-76
2022/12/30 13:46:24;;;;;;;41.75;24.67;;;;;;;;;;5053736;28;20025;-75
2022/12/30 13:49:04;;;;;;;39.30;24.23;;;;;;;;;;5054746;28;20028;-76
2022/12/30 13:51:31;;;;;;;40.30;24.40;;;;;;;;;;5054239;28;20067;-76
2022/12/30 13:54:14;;;;;;;40.63;24.63;;;;;;;;;;5054346;28;20021;-76
2022/12/30 13:56:49;;;;;;;42.33;25.50;;;;;;;;;;5054711;28;20040;-76
2022/12/30 13:59:34;;;;;;;42.35;23.98;;;;;;;;;;5053015;28;20447;-76
2022/12/30 14:02:18;;;;;;;41.17;23.77;;;;;;;;;;5054364;28;20416;-75
2022/12/30 14:04:48;;;;;;;33.30;21.58;;;;;;;;;;5054363;28;20037;-75
2022/12/30 14:07:39;;;;;;;36.67;22.63;;;;;;;;;;5054484;28;20059;-76
2022/12/30 14:10:23;;;;;;;36.78;21.83;;;;;;;;;;5054335;28;20406;-76
2022/12/30 14:13:25;;;;;;;48.00;29.23;;;;;;;;;;5054232;28;20033;-75
2022/12/30 14:15:59;;;;;;;41.38;24.92;;;;;;;;;;4992663;28;20034;-76
2022/12/30 14:18:50;;;;;;;34.97;20.67;;;;;;;;;;5041638;28;20149;-75
2022/12/30 14:21:19;;;;;;;40.33;23.98;;;;;;;;;;5053648;28;20066;-75
2022/12/30 14:23:46;;;;;;;41.95;23.73;;;;;;;;;;5053805;28;20471;-75
2022/12/30 14:26:22;;;;;;;38.65;21.25;;;;;;;;;;5053105;28;20044;-76
2022/12/30 14:28:50;;;;;;;39.05;21.23;;;;;;;;;;5054055;28;20094;-76
2022/12/30 14:31:45;;;;;;;32.33;19.52;;;;;;;;;;5053893;28;20486;-75
2022/12/30 14:34:31;;;;;;;33.75;20.42;;;;;;;;;;5054134;28;20037;-77
2022/12/30 14:37:11;;;;;;;32.97;20.20;;;;;;;;;;5053911;28;20041;-75
2022/12/30 14:39:50;;;;;;;37.80;21.30;;;;;;;;;;5053587;28;20036;-75
2022/12/30 14:42:25;;;;;;;43.70;22.60;;;;;;;;;;5053585;28;20060;-75
2022/12/30 14:44:54;;;;;;;43.38;25.83;;;;;;;;;;5052404;28;20075;-75
2022/12/30 14:47:40;;;;;;;38.30;23.40;;;;;;;;;;5053456;28;20029;-75
2022/12/30 14:50:09;;;;;;;44.20;23.58;;;;;;;;;;5053523;28;20071;-75
2022/12/30 14:52:43;;;;;;;41.25;23.73;;;;;;;;;;5052270;28;20552;-75
2022/12/30 14:55:08;;;;;;;41.92;24.30;;;;;;;;;;5053254;28;20060;-75
2022/12/30 14:57:39;;;;;;;42.33;25.50;;;;;;;;;;5052972;28;20431;-74
2022/12/30 15:00:09;;;;;;;49.30;28.33;;;;;;;;;;5052089;28;20097;-75
2022/12/30 15:02:46;;;;;;;41.40;25.67;;;;;;;;;;5052923;28;20441;-76
2022/12/30 15:05:23;;;;;;;46.40;26.10;;;;;;;;;;5053119;28;20104;-75
2022/12/30 15:08:03;;;;;;;42.33;24.40;;;;;;;;;;5053257;28;20041;-75
2022/12/30 15:10:32;;;;;;;49.20;25.02;;;;;;;;;;5053150;28;20103;-75
2022/12/30 15:13:16;;;;;;;49.92;26.38;;;;;;;;;;5052390;28;20021;-76
2022/12/30 15:15:52;;;;;;;47.95;24.73;;;;;;;;;;5053311;28;20040;-76
2022/12/30 15:18:33;;;;;;;81.30;44.55;;;;;;;;;;5053294;28;20067;-75
2022/12/30 15:21:33;;;;;;;72.03;37.97;;;;;;;;;;5051992;28;20082;-76
2022/12/30 15:23:59;;;;;;;60.60;33.47;;;;;;;;;;5048147;28;20150;-75
2022/12/30 15:26:30;;;;;;;65.63;39.13;;;;;;;;;;5052472;28;20020;-75
2022/12/30 15:28:57;;;;;;;69.53;38.65;;;;;;;;;;5052505;28;20547;-75
2022/12/30 15:31:31;;;;;;;87.13;42.97;;;;;;;;;;5052378;28;20488;-76